sensor_id;sensor_type;location;lat;lon;timestamp;pressure;altitude;pressure_sealevel;temperature;humidity
41467;BME280;27205;53.690;19.948;2023-05-25T00:01:26;100242.17;;;15.76;53.83
41467;BME280;27205;53.690;19.948;2023-05-25T00:06:31;100245.23;;;15.64;54.90
41467;BME280;27205;53.690;19.948;2023-05-25T00:11:35;100248.33;;;15.59;55.01
41467;BME280;27205;53.690;19.948;2023-05-25T00:16:38;100239.03;;;15.50;56.28
41467;BME280;27205;53.690;19.948;2023-05-25T00:21:43;100233.41;;;15.47;57.19
41467;BME280;27205;53.690;19.948;2023-05-25T00:26:50;100224.55;;;15.42;57.58
41467;BME280;27205;53.690;19.948;2023-05-25T00:31:54;100227.08;;;15.42;57.40
41467;BME280;27205;53.690;19.948;2023-05-25T00:36:57;100238.49;;;15.44;58.06
41467;BME280;27205;53.690;19.948;2023-05-25T00:42:02;100243.80;;;15.45;58.14
41467;BME280;27205;53.690;19.948;2023-05-25T00:47:05;100250.71;;;15.46;58.32
41467;BME280;27205;53.690;19.948;2023-05-25T00:52:11;100248.48;;;15.42;59.55
41467;BME280;27205;53.690;19.948;2023-05-25T00:57:16;100258.75;;;15.37;60.35
41467;BME280;27205;53.690;19.948;2023-05-25T01:02:25;100260.67;;;15.31;61.20
41467;BME280;27205;53.690;19.948;2023-05-25T01:07:29;100263.73;;;15.29;61.20
41467;BME280;27205;53.690;19.948;2023-05-25T01:12:34;100269.60;;;15.25;61.33
41467;BME280;27205;53.690;19.948;2023-05-25T01:17:38;100276.75;;;15.21;61.99
41467;BME280;27205;53.690;19.948;2023-05-25T01:22:48;100274.82;;;15.13;62.77
41467;BME280;27205;53.690;19.948;2023-05-25T01:28:04;100271.89;;;15.05;63.37
41467;BME280;27205;53.690;19.948;2023-05-25T01:33:09;100272.94;;;14.99;63.70
41467;BME280;27205;53.690;19.948;2023-05-25T01:38:13;100276.24;;;14.94;63.99
41467;BME280;27205;53.690;19.948;2023-05-25T01:43:16;100279.65;;;14.93;64.61
41467;BME280;27205;53.690;19.948;2023-05-25T01:48:31;100270.27;;;14.87;64.44
41467;BME280;27205;53.690;19.948;2023-05-25T01:53:51;100265.67;;;14.81;64.58
41467;BME280;27205;53.690;19.948;2023-05-25T01:58:57;100266.64;;;14.76;65.23
41467;BME280;27205;53.690;19.948;2023-05-25T02:04:04;100266.55;;;14.71;65.98
41467;BME280;27205;53.690;19.948;2023-05-25T02:09:08;100271.67;;;14.65;65.74
41467;BME280;27205;53.690;19.948;2023-05-25T02:14:12;100271.65;;;14.58;67.01
41467;BME280;27205;53.690;19.948;2023-05-25T02:19:15;100273.76;;;14.52;66.87
41467;BME280;27205;53.690;19.948;2023-05-25T02:24:21;100270.38;;;14.47;67.28
41467;BME280;27205;53.690;19.948;2023-05-25T02:29:25;100273.34;;;14.46;66.91
41467;BME280;27205;53.690;19.948;2023-05-25T02:34:29;100278.98;;;14.46;68.39
41467;BME280;27205;53.690;19.948;2023-05-25T02:39:33;100293.26;;;14.43;68.98
41467;BME280;27205;53.690;19.948;2023-05-25T02:44:36;100291.79;;;14.41;69.44
41467;BME280;27205;53.690;19.948;2023-05-25T02:49:40;100287.03;;;14.40;70.05
41467;BME280;27205;53.690;19.948;2023-05-25T02:54:43;100289.11;;;14.40;69.76
41467;BME280;27205;53.690;19.948;2023-05-25T02:59:48;100290.77;;;14.46;69.52
41467;BME280;27205;53.690;19.948;2023-05-25T03:04:51;100290.85;;;14.52;69.80
41467;BME280;27205;53.690;19.948;2023-05-25T03:09:55;100295.41;;;14.60;69.56
41467;BME280;27205;53.690;19.948;2023-05-25T03:15:00;100297.39;;;14.65;69.25
41467;BME280;27205;53.690;19.948;2023-05-25T03:20:04;100296.53;;;14.70;69.02
41467;BME280;27205;53.690;19.948;2023-05-25T03:25:09;100302.61;;;14.73;69.38
41467;BME280;27205;53.690;19.948;2023-05-25T03:30:15;100308.41;;;14.74;69.76
41467;BME280;27205;53.690;19.948;2023-05-25T03:35:19;100315.56;;;14.79;69.96
41467;BME280;27205;53.690;19.948;2023-05-25T03:40:23;100322.96;;;14.82;70.23
41467;BME280;27205;53.690;19.948;2023-05-25T03:45:26;100326.58;;;14.80;70.34
41467;BME280;27205;53.690;19.948;2023-05-25T03:50:30;100337.10;;;14.79;71.08
41467;BME280;27205;53.690;19.948;2023-05-25T03:55:34;100337.08;;;14.82;71.36
41467;BME280;27205;53.690;19.948;2023-05-25T04:00:37;100342.77;;;14.81;71.48
41467;BME280;27205;53.690;19.948;2023-05-25T04:05:41;100345.00;;;14.87;71.78
41467;BME280;27205;53.690;19.948;2023-05-25T04:10:45;100353.39;;;14.95;71.91
41467;BME280;27205;53.690;19.948;2023-05-25T04:15:49;100353.64;;;15.04;71.98
41467;BME280;27205;53.690;19.948;2023-05-25T04:20:53;100353.33;;;15.14;71.79
41467;BME280;27205;53.690;19.948;2023-05-25T04:26:00;100352.93;;;15.25;71.58
41467;BME280;27205;53.690;19.948;2023-05-25T04:31:04;100352.74;;;15.32;71.65
41467;BME280;27205;53.690;19.948;2023-05-25T04:36:08;100350.59;;;15.39;71.64
41467;BME280;27205;53.690;19.948;2023-05-25T04:41:13;100343.18;;;15.40;71.75
41467;BME280;27205;53.690;19.948;2023-05-25T04:46:17;100343.57;;;15.38;71.94
41467;BME280;27205;53.690;19.948;2023-05-25T04:51:21;100343.88;;;15.44;71.66
41467;BME280;27205;53.690;19.948;2023-05-25T04:56:25;100342.30;;;15.55;71.34
41467;BME280;27205;53.690;19.948;2023-05-25T05:01:29;100340.91;;;15.61;71.38
41467;BME280;27205;53.690;19.948;2023-05-25T05:06:33;100340.49;;;15.65;71.09
41467;BME280;27205;53.690;19.948;2023-05-25T05:11:37;100338.59;;;15.75;70.96
41467;BME280;27205;53.690;19.948;2023-05-25T05:16:41;100339.48;;;15.95;70.91
41467;BME280;27205;53.690;19.948;2023-05-25T05:21:44;100338.42;;;16.18;70.86
41467;BME280;27205;53.690;19.948;2023-05-25T05:26:48;100340.29;;;16.27;70.72
41467;BME280;27205;53.690;19.948;2023-05-25T05:32:00;100338.20;;;16.37;70.49
41467;BME280;27205;53.690;19.948;2023-05-25T05:37:04;100338.03;;;16.50;70.34
41467;BME280;27205;53.690;19.948;2023-05-25T05:42:08;100335.95;;;16.60;70.30
41467;BME280;27205;53.690;19.948;2023-05-25T05:47:11;100343.50;;;16.87;70.12
41467;BME280;27205;53.690;19.948;2023-05-25T05:52:15;100354.50;;;17.00;69.40
41467;BME280;27205;53.690;19.948;2023-05-25T05:57:18;100354.92;;;17.10;69.31
41467;BME280;27205;53.690;19.948;2023-05-25T06:02:23;100354.98;;;17.28;69.15
41467;BME280;27205;53.690;19.948;2023-05-25T06:07:27;100346.81;;;17.49;69.00
41467;BME280;27205;53.690;19.948;2023-05-25T06:12:33;100347.84;;;17.78;68.86
41467;BME280;27205;53.690;19.948;2023-05-25T06:17:36;100352.64;;;17.95;68.39
41467;BME280;27205;53.690;19.948;2023-05-25T06:22:40;100354.36;;;18.06;68.12
41467;BME280;27205;53.690;19.948;2023-05-25T06:27:44;100363.43;;;18.11;67.72
41467;BME280;27205;53.690;19.948;2023-05-25T06:32:47;100374.30;;;18.22;67.36
41467;BME280;27205;53.690;19.948;2023-05-25T06:37:51;100382.10;;;18.35;67.01
41467;BME280;27205;53.690;19.948;2023-05-25T06:42:54;100387.09;;;18.42;66.95
41467;BME280;27205;53.690;19.948;2023-05-25T06:47:58;100398.06;;;18.49;66.48
41467;BME280;27205;53.690;19.948;2023-05-25T06:53:03;100395.27;;;18.60;66.31
41467;BME280;27205;53.690;19.948;2023-05-25T06:58:06;100405.63;;;18.61;65.77
41467;BME280;27205;53.690;19.948;2023-05-25T07:03:10;100406.88;;;18.66;65.56
41467;BME280;27205;53.690;19.948;2023-05-25T07:08:13;100393.55;;;18.80;65.23
41467;BME280;27205;53.690;19.948;2023-05-25T07:13:17;100398.07;;;18.91;64.81
41467;BME280;27205;53.690;19.948;2023-05-25T07:18:20;100400.17;;;18.98;64.10
41467;BME280;27205;53.690;19.948;2023-05-25T07:23:24;100400.94;;;19.15;64.09
41467;BME280;27205;53.690;19.948;2023-05-25T07:28:27;100397.98;;;19.36;63.68
41467;BME280;27205;53.690;19.948;2023-05-25T07:33:31;100400.14;;;19.50;62.65
41467;BME280;27205;53.690;19.948;2023-05-25T07:38:35;100404.10;;;19.59;62.02
41467;BME280;27205;53.690;19.948;2023-05-25T07:43:39;100411.55;;;19.70;61.84
41467;BME280;27205;53.690;19.948;2023-05-25T07:48:42;100414.74;;;20.03;61.81
41467;BME280;27205;53.690;19.948;2023-05-25T07:53:46;100429.40;;;20.22;61.33
41467;BME280;27205;53.690;19.948;2023-05-25T07:58:50;100432.59;;;20.43;60.83
41467;BME280;27205;53.690;19.948;2023-05-25T08:03:53;100437.54;;;20.41;60.10
41467;BME280;27205;53.690;19.948;2023-05-25T08:08:57;100440.41;;;20.34;60.14
41467;BME280;27205;53.690;19.948;2023-05-25T08:14:01;100438.60;;;20.43;59.42
41467;BME280;27205;53.690;19.948;2023-05-25T08:19:04;100435.19;;;20.56;59.00
41467;BME280;27205;53.690;19.948;2023-05-25T08:24:08;100435.00;;;20.73;58.51
41467;BME280;27205;53.690;19.948;2023-05-25T08:29:12;100446.73;;;20.83;57.61
41467;BME280;27205;53.690;19.948;2023-05-25T08:34:15;100443.21;;;20.88;57.46
41467;BME280;27205;53.690;19.948;2023-05-25T08:39:19;100443.81;;;21.01;57.38
41467;BME280;27205;53.690;19.948;2023-05-25T08:44:22;100446.42;;;21.14;56.99
41467;BME280;27205;53.690;19.948;2023-05-25T08:49:26;100456.79;;;21.45;55.93
41467;BME280;27205;53.690;19.948;2023-05-25T08:54:34;100457.40;;;21.63;55.52
41467;BME280;27205;53.690;19.948;2023-05-25T08:59:52;100454.70;;;21.73;55.31
41467;BME280;27205;53.690;19.948;2023-05-25T09:04:59;100451.71;;;21.93;54.52
41467;BME280;27205;53.690;19.948;2023-05-25T09:10:04;100454.27;;;22.07;53.74
41467;BME280;27205;53.690;19.948;2023-05-25T09:15:10;100460.61;;;22.30;53.09
41467;BME280;27205;53.690;19.948;2023-05-25T09:20:15;100461.60;;;22.51;51.82
41467;BME280;27205;53.690;19.948;2023-05-25T09:25:21;100468.80;;;22.86;51.26
41467;BME280;27205;53.690;19.948;2023-05-25T09:30:28;100461.66;;;23.11;50.49
41467;BME280;27205;53.690;19.948;2023-05-25T09:35:35;100474.38;;;23.40;49.28
41467;BME280;27205;53.690;19.948;2023-05-25T09:40:39;100475.56;;;23.63;48.47
41467;BME280;27205;53.690;19.948;2023-05-25T09:45:43;100485.86;;;23.99;47.51
41467;BME280;27205;53.690;19.948;2023-05-25T09:50:47;100488.89;;;24.16;46.90
41467;BME280;27205;53.690;19.948;2023-05-25T09:55:52;100501.35;;;24.21;46.33
41467;BME280;27205;53.690;19.948;2023-05-25T10:00:56;100499.77;;;24.03;46.00
41467;BME280;27205;53.690;19.948;2023-05-25T10:06:00;100503.19;;;23.80;45.99
41467;BME280;27205;53.690;19.948;2023-05-25T10:11:05;100499.50;;;23.91;46.47
41467;BME280;27205;53.690;19.948;2023-05-25T10:16:09;100501.08;;;24.16;46.37
41467;BME280;27205;53.690;19.948;2023-05-25T10:21:16;100500.04;;;24.39;46.63
41467;BME280;27205;53.690;19.948;2023-05-25T10:26:23;100504.69;;;24.55;46.20
41467;BME280;27205;53.690;19.948;2023-05-25T10:31:29;100503.80;;;24.67;45.66
41467;BME280;27205;53.690;19.948;2023-05-25T10:36:36;100506.35;;;24.48;44.80
41467;BME280;27205;53.690;19.948;2023-05-25T10:41:40;100507.35;;;24.11;44.71
41467;BME280;27205;53.690;19.948;2023-05-25T10:46:44;100504.48;;;24.15;44.48
41467;BME280;27205;53.690;19.948;2023-05-25T10:51:56;100521.14;;;24.40;44.19
41467;BME280;27205;53.690;19.948;2023-05-25T10:57:11;100513.00;;;24.64;44.37
41467;BME280;27205;53.690;19.948;2023-05-25T11:02:18;100511.36;;;25.07;44.48
41467;BME280;27205;53.690;19.948;2023-05-25T11:07:25;100519.13;;;25.10;43.50
41467;BME280;27205;53.690;19.948;2023-05-25T11:12:29;100521.61;;;24.80;43.80
41467;BME280;27205;53.690;19.948;2023-05-25T11:17:43;100520.27;;;24.70;43.78
41467;BME280;27205;53.690;19.948;2023-05-25T11:22:49;100517.87;;;24.42;43.51
41467;BME280;27205;53.690;19.948;2023-05-25T11:28:01;100521.77;;;24.50;43.57
41467;BME280;27205;53.690;19.948;2023-05-25T11:33:05;100514.27;;;24.70;43.83
41467;BME280;27205;53.690;19.948;2023-05-25T11:38:10;100513.30;;;24.79;44.08
41467;BME280;27205;53.690;19.948;2023-05-25T11:43:14;100511.70;;;24.81;44.18
41467;BME280;27205;53.690;19.948;2023-05-25T11:48:18;100515.84;;;24.83;44.14
41467;BME280;27205;53.690;19.948;2023-05-25T11:53:22;100516.33;;;24.70;44.06
41467;BME280;27205;53.690;19.948;2023-05-25T11:58:32;100512.04;;;24.69;43.59
41467;BME280;27205;53.690;19.948;2023-05-25T12:03:36;100510.91;;;24.71;43.40
41467;BME280;27205;53.690;19.948;2023-05-25T12:08:39;100505.84;;;24.76;42.85
41467;BME280;27205;53.690;19.948;2023-05-25T12:13:43;100505.52;;;24.84;42.77
41467;BME280;27205;53.690;19.948;2023-05-25T12:18:47;100509.58;;;25.03;42.52
41467;BME280;27205;53.690;19.948;2023-05-25T12:23:52;100507.29;;;25.14;41.63
41467;BME280;27205;53.690;19.948;2023-05-25T12:29:04;100508.54;;;25.26;41.57
41467;BME280;27205;53.690;19.948;2023-05-25T12:34:15;100515.83;;;25.54;40.90
41467;BME280;27205;53.690;19.948;2023-05-25T12:44:33;100506.23;;;25.80;40.58
41467;BME280;27205;53.690;19.948;2023-05-25T12:49:38;100510.52;;;26.26;40.27
41467;BME280;27205;53.690;19.948;2023-05-25T12:54:42;100509.85;;;26.35;39.56
41467;BME280;27205;53.690;19.948;2023-05-25T12:59:55;100505.44;;;26.26;39.61
41467;BME280;27205;53.690;19.948;2023-05-25T13:04:58;100505.46;;;26.47;39.51
41467;BME280;27205;53.690;19.948;2023-05-25T13:10:02;100502.50;;;26.59;39.58
41467;BME280;27205;53.690;19.948;2023-05-25T13:15:06;100497.48;;;26.73;39.43
41467;BME280;27205;53.690;19.948;2023-05-25T13:20:14;100497.69;;;26.73;39.30
41467;BME280;27205;53.690;19.948;2023-05-25T13:25:17;100494.90;;;26.47;39.58
41467;BME280;27205;53.690;19.948;2023-05-25T13:30:21;100493.84;;;26.41;39.86
41467;BME280;27205;53.690;19.948;2023-05-25T13:35:25;100490.40;;;26.37;39.87
41467;BME280;27205;53.690;19.948;2023-05-25T13:40:48;100489.36;;;26.37;39.95
41467;BME280;27205;53.690;19.948;2023-05-25T13:45:52;100489.86;;;26.02;39.99
41467;BME280;27205;53.690;19.948;2023-05-25T13:50:55;100484.70;;;26.44;39.81
41467;BME280;27205;53.690;19.948;2023-05-25T13:55:59;100477.90;;;27.42;39.24
41467;BME280;27205;53.690;19.948;2023-05-25T14:01:03;100479.45;;;27.22;38.95
41467;BME280;27205;53.690;19.948;2023-05-25T14:06:07;100477.05;;;27.38;38.93
41467;BME280;27205;53.690;19.948;2023-05-25T14:11:10;100473.34;;;27.94;38.43
41467;BME280;27205;53.690;19.948;2023-05-25T14:16:14;100474.99;;;27.84;38.20
41467;BME280;27205;53.690;19.948;2023-05-25T14:21:18;100470.64;;;27.39;38.44
41467;BME280;27205;53.690;19.948;2023-05-25T14:26:22;100464.67;;;26.73;38.83
41467;BME280;27205;53.690;19.948;2023-05-25T14:31:26;100469.66;;;26.21;39.27
41467;BME280;27205;53.690;19.948;2023-05-25T14:36:30;100473.16;;;26.74;39.30
41467;BME280;27205;53.690;19.948;2023-05-25T14:41:34;100470.91;;;27.94;38.15
41467;BME280;27205;53.690;19.948;2023-05-25T14:46:37;100477.22;;;27.59;38.24
41467;BME280;27205;53.690;19.948;2023-05-25T14:51:41;100475.94;;;28.00;38.10
41467;BME280;27205;53.690;19.948;2023-05-25T14:56:46;100487.00;;;31.55;35.11
41467;BME280;27205;53.690;19.948;2023-05-25T15:01:49;100475.10;;;31.53;34.14
41467;BME280;27205;53.690;19.948;2023-05-25T15:06:53;100477.16;;;30.07;34.48
41467;BME280;27205;53.690;19.948;2023-05-25T15:11:57;100473.65;;;28.21;35.55
41467;BME280;27205;53.690;19.948;2023-05-25T15:17:01;100477.59;;;26.88;36.58
41467;BME280;27205;53.690;19.948;2023-05-25T15:22:05;100473.27;;;26.02;37.70
41467;BME280;27205;53.690;19.948;2023-05-25T15:27:09;100477.48;;;24.93;39.91
41467;BME280;27205;53.690;19.948;2023-05-25T15:32:13;100482.67;;;23.90;40.76
41467;BME280;27205;53.690;19.948;2023-05-25T15:37:19;100486.55;;;23.39;41.99
41467;BME280;27205;53.690;19.948;2023-05-25T15:42:23;100492.95;;;23.11;43.54
41467;BME280;27205;53.690;19.948;2023-05-25T15:47:26;100484.79;;;23.46;44.57
41467;BME280;27205;53.690;19.948;2023-05-25T15:52:30;100492.34;;;24.24;43.69
41467;BME280;27205;53.690;19.948;2023-05-25T15:57:34;100491.55;;;25.62;41.91
41467;BME280;27205;53.690;19.948;2023-05-25T16:02:37;100494.56;;;25.01;41.91
41467;BME280;27205;53.690;19.948;2023-05-25T16:07:41;100494.55;;;25.28;41.77
41467;BME280;27205;53.690;19.948;2023-05-25T16:12:45;100494.19;;;28.16;38.93
41467;BME280;27205;53.690;19.948;2023-05-25T16:17:48;100491.87;;;28.17;37.64
41467;BME280;27205;53.690;19.948;2023-05-25T16:22:52;100489.70;;;27.51;37.80
41467;BME280;27205;53.690;19.948;2023-05-25T16:27:56;100496.06;;;29.59;36.31
41467;BME280;27205;53.690;19.948;2023-05-25T16:32:59;100501.63;;;32.37;33.73
41467;BME280;27205;53.690;19.948;2023-05-25T16:38:03;100514.34;;;33.58;32.23
41467;BME280;27205;53.690;19.948;2023-05-25T16:43:06;100523.69;;;34.07;31.08
41467;BME280;27205;53.690;19.948;2023-05-25T16:48:10;100520.95;;;32.30;31.10
41467;BME280;27205;53.690;19.948;2023-05-25T16:53:14;100513.40;;;30.90;31.92
41467;BME280;27205;53.690;19.948;2023-05-25T16:58:17;100520.20;;;31.29;31.86
41467;BME280;27205;53.690;19.948;2023-05-25T17:03:21;100525.39;;;32.19;31.22
41467;BME280;27205;53.690;19.948;2023-05-25T17:08:25;100522.40;;;30.77;31.66
41467;BME280;27205;53.690;19.948;2023-05-25T17:13:28;100526.42;;;28.19;32.88
41467;BME280;27205;53.690;19.948;2023-05-25T17:18:32;100528.67;;;27.20;33.78
41467;BME280;27205;53.690;19.948;2023-05-25T17:23:35;100535.50;;;27.76;34.04
41467;BME280;27205;53.690;19.948;2023-05-25T17:28:39;100533.25;;;27.16;34.53
41467;BME280;27205;53.690;19.948;2023-05-25T17:33:42;100534.94;;;26.41;35.14
41467;BME280;27205;53.690;19.948;2023-05-25T17:38:46;100536.45;;;25.41;36.29
41467;BME280;27205;53.690;19.948;2023-05-25T17:43:49;100535.08;;;25.73;36.15
41467;BME280;27205;53.690;19.948;2023-05-25T17:48:53;100529.33;;;24.80;36.88
41467;BME280;27205;53.690;19.948;2023-05-25T17:53:56;100532.86;;;23.86;37.98
41467;BME280;27205;53.690;19.948;2023-05-25T17:59:00;100535.61;;;22.83;38.99
41467;BME280;27205;53.690;19.948;2023-05-25T18:04:03;100535.04;;;21.98;40.05
41467;BME280;27205;53.690;19.948;2023-05-25T18:09:07;100530.77;;;21.23;41.40
41467;BME280;27205;53.690;19.948;2023-05-25T18:14:11;100531.76;;;20.45;42.87
41467;BME280;27205;53.690;19.948;2023-05-25T18:19:14;100533.95;;;19.81;44.77
41467;BME280;27205;53.690;19.948;2023-05-25T18:24:20;100529.92;;;19.34;45.58
41467;BME280;27205;53.690;19.948;2023-05-25T18:29:23;100530.70;;;18.99;46.07
41467;BME280;27205;53.690;19.948;2023-05-25T18:34:27;100533.23;;;18.69;47.35
41467;BME280;27205;53.690;19.948;2023-05-25T18:39:31;100535.47;;;18.38;47.88
41467;BME280;27205;53.690;19.948;2023-05-25T18:44:35;100543.77;;;18.08;48.82
41467;BME280;27205;53.690;19.948;2023-05-25T18:49:39;100545.46;;;17.81;50.30
41467;BME280;27205;53.690;19.948;2023-05-25T18:54:42;100542.32;;;17.54;52.37
41467;BME280;27205;53.690;19.948;2023-05-25T18:59:46;100545.79;;;17.31;52.41
41467;BME280;27205;53.690;19.948;2023-05-25T19:04:50;100547.21;;;17.10;53.56
41467;BME280;27205;53.690;19.948;2023-05-25T19:09:53;100544.44;;;16.90;54.74
41467;BME280;27205;53.690;19.948;2023-05-25T19:14:57;100542.89;;;16.74;54.44
41467;BME280;27205;53.690;19.948;2023-05-25T19:20:03;100544.88;;;16.62;55.49
41467;BME280;27205;53.690;19.948;2023-05-25T19:25:06;100557.35;;;16.59;55.75
41467;BME280;27205;53.690;19.948;2023-05-25T19:30:10;100561.31;;;16.54;56.15
41467;BME280;27205;53.690;19.948;2023-05-25T19:35:14;100566.06;;;16.53;56.26
41467;BME280;27205;53.690;19.948;2023-05-25T19:40:17;100566.70;;;16.51;56.56
41467;BME280;27205;53.690;19.948;2023-05-25T19:45:21;100569.33;;;16.50;56.91
41467;BME280;27205;53.690;19.948;2023-05-25T19:50:24;100566.66;;;16.52;57.81
41467;BME280;27205;53.690;19.948;2023-05-25T19:55:32;100567.32;;;16.46;58.44
41467;BME280;27205;53.690;19.948;2023-05-25T20:00:38;100564.82;;;16.42;57.72
41467;BME280;27205;53.690;19.948;2023-05-25T20:05:42;100567.70;;;16.36;57.83
41467;BME280;27205;53.690;19.948;2023-05-25T20:10:46;100568.08;;;16.30;57.32
41467;BME280;27205;53.690;19.948;2023-05-25T20:15:50;100564.98;;;16.21;56.84
41467;BME280;27205;53.690;19.948;2023-05-25T20:20:53;100569.56;;;16.14;56.65
41467;BME280;27205;53.690;19.948;2023-05-25T20:25:57;100573.38;;;16.04;56.61
41467;BME280;27205;53.690;19.948;2023-05-25T20:31:00;100574.00;;;15.96;56.30
41467;BME280;27205;53.690;19.948;2023-05-25T20:36:04;100578.05;;;15.86;56.35
41467;BME280;27205;53.690;19.948;2023-05-25T20:41:08;100579.32;;;15.76;56.26
41467;BME280;27205;53.690;19.948;2023-05-25T20:46:11;100577.08;;;15.69;56.61
41467;BME280;27205;53.690;19.948;2023-05-25T20:51:15;100577.24;;;15.62;56.58
41467;BME280;27205;53.690;19.948;2023-05-25T20:56:19;100573.80;;;15.52;57.10
41467;BME280;27205;53.690;19.948;2023-05-25T21:01:22;100569.32;;;15.44;57.17
41467;BME280;27205;53.690;19.948;2023-05-25T21:06:26;100572.65;;;15.35;56.94
41467;BME280;27205;53.690;19.948;2023-05-25T21:11:29;100577.13;;;15.23;57.35
41467;BME280;27205;53.690;19.948;2023-05-25T21:16:33;100577.81;;;15.10;57.77
41467;BME280;27205;53.690;19.948;2023-05-25T21:21:37;100581.21;;;14.96;57.74
41467;BME280;27205;53.690;19.948;2023-05-25T21:26:44;100575.03;;;14.84;57.79
41467;BME280;27205;53.690;19.948;2023-05-25T21:31:50;100575.89;;;14.69;58.46
41467;BME280;27205;53.690;19.948;2023-05-25T21:36:54;100577.73;;;14.58;58.40
41467;BME280;27205;53.690;19.948;2023-05-25T21:41:57;100576.11;;;14.45;58.67
41467;BME280;27205;53.690;19.948;2023-05-25T21:47:01;100576.52;;;14.32;59.23
41467;BME280;27205;53.690;19.948;2023-05-25T21:52:05;100576.32;;;14.20;59.68
41467;BME280;27205;53.690;19.948;2023-05-25T21:57:08;100573.85;;;14.09;59.71
41467;BME280;27205;53.690;19.948;2023-05-25T22:02:12;100565.52;;;13.99;59.57
41467;BME280;27205;53.690;19.948;2023-05-25T22:07:16;100563.28;;;13.92;59.97
41467;BME280;27205;53.690;19.948;2023-05-25T22:12:19;100568.34;;;13.85;60.05
41467;BME280;27205;53.690;19.948;2023-05-25T22:17:23;100570.98;;;13.75;60.39
41467;BME280;27205;53.690;19.948;2023-05-25T22:22:27;100571.42;;;13.64;60.75
41467;BME280;27205;53.690;19.948;2023-05-25T22:27:31;100565.56;;;13.54;60.73
41467;BME280;27205;53.690;19.948;2023-05-25T22:32:35;100565.28;;;13.48;60.79
41467;BME280;27205;53.690;19.948;2023-05-25T22:37:38;100556.14;;;13.43;61.11
41467;BME280;27205;53.690;19.948;2023-05-25T22:42:43;100553.70;;;13.35;61.36
41467;BME280;27205;53.690;19.948;2023-05-25T22:47:52;100552.64;;;13.23;61.52
41467;BME280;27205;53.690;19.948;2023-05-25T22:52:56;100550.00;;;13.10;61.36
41467;BME280;27205;53.690;19.948;2023-05-25T22:57:59;100543.05;;;12.96;61.59
41467;BME280;27205;53.690;19.948;2023-05-25T23:03:03;100543.16;;;12.87;61.58
41467;BME280;27205;53.690;19.948;2023-05-25T23:08:07;100542.31;;;12.79;61.77
41467;BME280;27205;53.690;19.948;2023-05-25T23:13:10;100544.48;;;12.72;62.24
41467;BME280;27205;53.690;19.948;2023-05-25T23:18:16;100548.05;;;12.64;62.39
41467;BME280;27205;53.690;19.948;2023-05-25T23:23:20;100548.74;;;12.55;62.90
41467;BME280;27205;53.690;19.948;2023-05-25T23:28:23;100544.30;;;12.44;63.37
41467;BME280;27205;53.690;19.948;2023-05-25T23:33:27;100552.67;;;12.36;63.44
41467;BME280;27205;53.690;19.948;2023-05-25T23:38:31;100545.92;;;12.25;64.20
41467;BME280;27205;53.690;19.948;2023-05-25T23:43:34;100546.81;;;12.17;64.26
41467;BME280;27205;53.690;19.948;2023-05-25T23:48:38;100542.24;;;12.06;64.86
41467;BME280;27205;53.690;19.948;2023-05-25T23:53:42;100544.18;;;11.92;65.13
41467;BME280;27205;53.690;19.948;2023-05-25T23:58:45;100540.22;;;11.82;64.68
